首页
METAR-TAF:

METAR-TAF

机场 :

豪尔赫·查韦斯国际机场

利馬, 秘鲁

纬度: 12-00S, 经度: 077-07W, 海拔: 12米

当前天气观测

该预报发布于35分钟前的18:00 UTC
风速9节,风向
温度 19°C
湿度 78%
气压 1016 hPa
能见度10公里或以上
阴天层高于1200英尺

METAR: SPJC 171800Z 19009KT 9999 OVC012 19/15 Q1016 NOSIG RMK PP000

时间: 13:35 (18:35 UTC)

预报

该预报发布于1小时和35分钟前的17:00 UTC
预报有效从17日的 18点(UTC)到 18日的 18点(UTC)
风速12节,风向
能见度10公里或以上
阴天层高于1700英尺
从 18日的 0000点(UTC)
风速7节,风向
阴天层高于1500英尺
成为
从 18日的 06点(UTC)到 18日的 08点(UTC)
能見度: 8000
阴天层高于1000英尺
成为
从 18日的 14点(UTC)到 18日的 16点(UTC)
能见度10公里或以上
阴天层高于1500英尺

TAF: SPJC 171700Z 1718/1818 17012KT 9999 OVC017 TX19/1718Z TN15/1811Z FM180000 17007KT OVC015 BECMG 1806/1808 8000 OVC010 BECMG 1814/1816 9999 OVC015

超过4000个机场的气象观测和天气预报(METAR&TAF报告)。

可查询的气象台以黄色和红色小点在地图上表示。

将鼠标移到小点上方,可查看气象台名称。

然后点击查看天气观测和预报。

如需切换地图:点击带黑十字的绿色按钮放大地图;点击带横线的绿色按钮缩小地图;或者点击绿色箭头查看邻近地区的地图。


METAR-TAF: